sensor_id;sensor_type;location;lat;lon;timestamp;temperature;humidity
42099;DHT22;27758;55.900;8.516;2023-08-17T00:01:55;15.80;99.90
42099;DHT22;27758;55.900;8.516;2023-08-17T00:04:21;15.80;99.90
42099;DHT22;27758;55.900;8.516;2023-08-17T00:06:47;15.80;99.90
42099;DHT22;27758;55.900;8.516;2023-08-17T00:09:13;15.80;99.90
42099;DHT22;27758;55.900;8.516;2023-08-17T00:11:39;15.80;99.90
42099;DHT22;27758;55.900;8.516;2023-08-17T00:14:05;15.80;99.90
42099;DHT22;27758;55.900;8.516;2023-08-17T00:16:31;15.90;99.90
42099;DHT22;27758;55.900;8.516;2023-08-17T00:18:57;15.90;99.90
42099;DHT22;27758;55.900;8.516;2023-08-17T00:21:23;15.90;99.90
42099;DHT22;27758;55.900;8.516;2023-08-17T00:23:49;15.80;99.90
42099;DHT22;27758;55.900;8.516;2023-08-17T00:26:15;15.80;99.90
42099;DHT22;27758;55.900;8.516;2023-08-17T00:28:41;15.90;99.90
42099;DHT22;27758;55.900;8.516;2023-08-17T00:31:07;15.80;99.90
42099;DHT22;27758;55.900;8.516;2023-08-17T00:33:32;15.80;99.90
42099;DHT22;27758;55.900;8.516;2023-08-17T00:35:58;15.90;99.90
42099;DHT22;27758;55.900;8.516;2023-08-17T00:38:25;15.90;99.90
42099;DHT22;27758;55.900;8.516;2023-08-17T00:40:51;15.80;99.90
42099;DHT22;27758;55.900;8.516;2023-08-17T00:43:16;15.90;99.90
42099;DHT22;27758;55.900;8.516;2023-08-17T00:45:44;15.80;99.90
42099;DHT22;27758;55.900;8.516;2023-08-17T00:48:11;15.70;99.90
42099;DHT22;27758;55.900;8.516;2023-08-17T00:50:38;15.80;99.90
42099;DHT22;27758;55.900;8.516;2023-08-17T00:53:04;15.70;99.90
42099;DHT22;27758;55.900;8.516;2023-08-17T00:55:30;15.80;99.90
42099;DHT22;27758;55.900;8.516;2023-08-17T00:57:57;15.70;99.90
42099;DHT22;27758;55.900;8.516;2023-08-17T01:00:24;15.70;99.90
42099;DHT22;27758;55.900;8.516;2023-08-17T01:02:51;15.70;99.90
42099;DHT22;27758;55.900;8.516;2023-08-17T01:05:17;15.70;99.90
42099;DHT22;27758;55.900;8.516;2023-08-17T01:07:43;15.70;99.90
42099;DHT22;27758;55.900;8.516;2023-08-17T01:10:09;15.70;99.90
42099;DHT22;27758;55.900;8.516;2023-08-17T01:12:46;15.80;99.90
42099;DHT22;27758;55.900;8.516;2023-08-17T01:15:37;15.70;99.90
42099;DHT22;27758;55.900;8.516;2023-08-17T01:18:22;15.70;99.90
42099;DHT22;27758;55.900;8.516;2023-08-17T01:20:49;15.70;99.90
42099;DHT22;27758;55.900;8.516;2023-08-17T01:23:15;15.70;99.90
42099;DHT22;27758;55.900;8.516;2023-08-17T01:25:41;15.60;99.90
42099;DHT22;27758;55.900;8.516;2023-08-17T01:28:06;15.60;99.90
42099;DHT22;27758;55.900;8.516;2023-08-17T01:30:51;15.70;99.90
42099;DHT22;27758;55.900;8.516;2023-08-17T01:33:40;15.70;99.90
42099;DHT22;27758;55.900;8.516;2023-08-17T01:36:33;15.70;99.90
42099;DHT22;27758;55.900;8.516;2023-08-17T01:39:01;15.70;99.90
42099;DHT22;27758;55.900;8.516;2023-08-17T01:41:29;15.70;99.90
42099;DHT22;27758;55.900;8.516;2023-08-17T01:43:56;15.70;99.90
42099;DHT22;27758;55.900;8.516;2023-08-17T01:46:25;15.70;99.90
42099;DHT22;27758;55.900;8.516;2023-08-17T01:48:50;15.70;99.90
42099;DHT22;27758;55.900;8.516;2023-08-17T01:51:19;15.70;99.90
42099;DHT22;27758;55.900;8.516;2023-08-17T01:53:45;15.70;99.90
42099;DHT22;27758;55.900;8.516;2023-08-17T01:56:11;15.70;99.90
42099;DHT22;27758;55.900;8.516;2023-08-17T01:58:37;15.60;99.90
42099;DHT22;27758;55.900;8.516;2023-08-17T02:01:02;15.60;99.90
42099;DHT22;27758;55.900;8.516;2023-08-17T02:03:28;15.70;99.90
42099;DHT22;27758;55.900;8.516;2023-08-17T02:05:58;15.70;99.90
42099;DHT22;27758;55.900;8.516;2023-08-17T02:08:23;15.60;99.90
42099;DHT22;27758;55.900;8.516;2023-08-17T02:10:49;15.60;99.90
42099;DHT22;27758;55.900;8.516;2023-08-17T02:13:16;15.60;99.90
42099;DHT22;27758;55.900;8.516;2023-08-17T02:15:42;15.60;99.90
42099;DHT22;27758;55.900;8.516;2023-08-17T02:18:07;15.60;99.90
42099;DHT22;27758;55.900;8.516;2023-08-17T02:20:34;15.50;99.90
42099;DHT22;27758;55.900;8.516;2023-08-17T02:22:59;15.50;99.90
42099;DHT22;27758;55.900;8.516;2023-08-17T02:25:25;15.50;99.90
42099;DHT22;27758;55.900;8.516;2023-08-17T02:27:52;15.40;99.90
42099;DHT22;27758;55.900;8.516;2023-08-17T02:30:17;15.50;99.90
42099;DHT22;27758;55.900;8.516;2023-08-17T02:32:43;15.50;99.90
42099;DHT22;27758;55.900;8.516;2023-08-17T02:35:10;15.50;99.90
42099;DHT22;27758;55.900;8.516;2023-08-17T02:37:35;15.50;99.90
42099;DHT22;27758;55.900;8.516;2023-08-17T02:40:02;15.50;99.90
42099;DHT22;27758;55.900;8.516;2023-08-17T02:42:29;15.40;99.90
42099;DHT22;27758;55.900;8.516;2023-08-17T02:44:55;15.50;99.90
42099;DHT22;27758;55.900;8.516;2023-08-17T02:47:21;15.40;99.90
42099;DHT22;27758;55.900;8.516;2023-08-17T02:49:46;15.40;99.90
42099;DHT22;27758;55.900;8.516;2023-08-17T02:52:14;15.40;99.90
42099;DHT22;27758;55.900;8.516;2023-08-17T02:54:40;15.40;99.90
42099;DHT22;27758;55.900;8.516;2023-08-17T02:57:06;15.40;99.90
42099;DHT22;27758;55.900;8.516;2023-08-17T02:59:31;15.40;99.90
42099;DHT22;27758;55.900;8.516;2023-08-17T03:01:57;15.40;99.90
42099;DHT22;27758;55.900;8.516;2023-08-17T03:04:23;15.40;99.90
42099;DHT22;27758;55.900;8.516;2023-08-17T03:06:49;15.40;99.90
42099;DHT22;27758;55.900;8.516;2023-08-17T03:09:15;15.40;99.90
42099;DHT22;27758;55.900;8.516;2023-08-17T03:11:41;15.40;99.90
42099;DHT22;27758;55.900;8.516;2023-08-17T03:14:06;15.40;99.90
42099;DHT22;27758;55.900;8.516;2023-08-17T03:16:32;15.40;99.90
42099;DHT22;27758;55.900;8.516;2023-08-17T03:18:58;15.30;99.90
42099;DHT22;27758;55.900;8.516;2023-08-17T03:21:24;15.40;99.90
42099;DHT22;27758;55.900;8.516;2023-08-17T03:23:49;15.40;99.90
42099;DHT22;27758;55.900;8.516;2023-08-17T03:26:15;15.50;99.90
42099;DHT22;27758;55.900;8.516;2023-08-17T03:28:41;15.50;99.90
42099;DHT22;27758;55.900;8.516;2023-08-17T03:31:07;15.50;99.90
42099;DHT22;27758;55.900;8.516;2023-08-17T03:33:35;15.50;99.90
42099;DHT22;27758;55.900;8.516;2023-08-17T03:36:01;15.50;99.90
42099;DHT22;27758;55.900;8.516;2023-08-17T03:38:27;15.50;99.90
42099;DHT22;27758;55.900;8.516;2023-08-17T03:40:52;15.50;99.90
42099;DHT22;27758;55.900;8.516;2023-08-17T03:43:18;15.50;99.90
42099;DHT22;27758;55.900;8.516;2023-08-17T03:45:44;15.50;99.90
42099;DHT22;27758;55.900;8.516;2023-08-17T03:48:09;15.50;99.90
42099;DHT22;27758;55.900;8.516;2023-08-17T03:50:35;15.50;99.90
42099;DHT22;27758;55.900;8.516;2023-08-17T03:53:01;15.40;99.90
42099;DHT22;27758;55.900;8.516;2023-08-17T03:55:27;15.50;99.90
42099;DHT22;27758;55.900;8.516;2023-08-17T03:57:52;15.40;99.90
42099;DHT22;27758;55.900;8.516;2023-08-17T04:00:18;15.40;99.90
42099;DHT22;27758;55.900;8.516;2023-08-17T04:02:44;15.40;99.90
42099;DHT22;27758;55.900;8.516;2023-08-17T04:05:10;15.40;99.90
42099;DHT22;27758;55.900;8.516;2023-08-17T04:07:36;15.40;99.90
42099;DHT22;27758;55.900;8.516;2023-08-17T04:10:03;15.40;99.90
42099;DHT22;27758;55.900;8.516;2023-08-17T04:12:29;15.40;99.90
42099;DHT22;27758;55.900;8.516;2023-08-17T04:14:54;15.40;99.90
42099;DHT22;27758;55.900;8.516;2023-08-17T04:17:20;15.40;99.90
42099;DHT22;27758;55.900;8.516;2023-08-17T04:19:47;15.40;99.90
42099;DHT22;27758;55.900;8.516;2023-08-17T04:22:12;15.40;99.90
42099;DHT22;27758;55.900;8.516;2023-08-17T04:24:38;15.40;99.90
42099;DHT22;27758;55.900;8.516;2023-08-17T04:27:04;15.40;99.90
42099;DHT22;27758;55.900;8.516;2023-08-17T04:29:31;15.40;99.90
42099;DHT22;27758;55.900;8.516;2023-08-17T04:31:57;15.50;99.90
42099;DHT22;27758;55.900;8.516;2023-08-17T04:34:24;15.50;99.90
42099;DHT22;27758;55.900;8.516;2023-08-17T04:36:50;15.50;99.90
42099;DHT22;27758;55.900;8.516;2023-08-17T04:39:16;15.40;99.90
42099;DHT22;27758;55.900;8.516;2023-08-17T04:41:42;15.40;99.90
42099;DHT22;27758;55.900;8.516;2023-08-17T04:44:07;15.40;99.90
42099;DHT22;27758;55.900;8.516;2023-08-17T04:46:33;15.40;99.90
42099;DHT22;27758;55.900;8.516;2023-08-17T04:48:59;15.40;99.90
42099;DHT22;27758;55.900;8.516;2023-08-17T04:51:24;15.40;99.90
42099;DHT22;27758;55.900;8.516;2023-08-17T04:53:50;15.40;99.90
42099;DHT22;27758;55.900;8.516;2023-08-17T04:56:16;15.50;99.90
42099;DHT22;27758;55.900;8.516;2023-08-17T04:58:41;15.50;99.90
42099;DHT22;27758;55.900;8.516;2023-08-17T05:01:07;15.40;99.90
42099;DHT22;27758;55.900;8.516;2023-08-17T05:03:33;15.40;99.90
42099;DHT22;27758;55.900;8.516;2023-08-17T05:05:59;15.40;99.90
42099;DHT22;27758;55.900;8.516;2023-08-17T05:08:24;15.40;99.90
42099;DHT22;27758;55.900;8.516;2023-08-17T05:10:50;15.30;99.90
42099;DHT22;27758;55.900;8.516;2023-08-17T05:13:16;15.30;99.90
42099;DHT22;27758;55.900;8.516;2023-08-17T05:15:41;15.30;99.90
42099;DHT22;27758;55.900;8.516;2023-08-17T05:18:08;15.20;99.90
42099;DHT22;27758;55.900;8.516;2023-08-17T05:20:33;15.30;99.90
42099;DHT22;27758;55.900;8.516;2023-08-17T05:22:59;15.20;99.90
42099;DHT22;27758;55.900;8.516;2023-08-17T05:25:24;15.30;99.90
42099;DHT22;27758;55.900;8.516;2023-08-17T05:27:52;15.20;99.90
42099;DHT22;27758;55.900;8.516;2023-08-17T05:30:17;15.30;99.90
42099;DHT22;27758;55.900;8.516;2023-08-17T05:32:43;15.30;99.90
42099;DHT22;27758;55.900;8.516;2023-08-17T05:35:09;15.30;99.90
42099;DHT22;27758;55.900;8.516;2023-08-17T05:37:35;15.40;99.90
42099;DHT22;27758;55.900;8.516;2023-08-17T05:40:00;15.40;99.90
42099;DHT22;27758;55.900;8.516;2023-08-17T05:42:26;15.50;99.90
42099;DHT22;27758;55.900;8.516;2023-08-17T05:44:52;15.50;99.90
42099;DHT22;27758;55.900;8.516;2023-08-17T05:47:17;15.50;99.90
42099;DHT22;27758;55.900;8.516;2023-08-17T05:49:45;15.50;99.90
42099;DHT22;27758;55.900;8.516;2023-08-17T05:52:11;15.50;99.90
42099;DHT22;27758;55.900;8.516;2023-08-17T05:54:37;15.50;99.90
42099;DHT22;27758;55.900;8.516;2023-08-17T05:57:03;15.50;99.90
42099;DHT22;27758;55.900;8.516;2023-08-17T05:59:29;15.50;99.90
42099;DHT22;27758;55.900;8.516;2023-08-17T06:01:55;15.50;99.90
42099;DHT22;27758;55.900;8.516;2023-08-17T06:04:20;15.60;99.90
42099;DHT22;27758;55.900;8.516;2023-08-17T06:06:46;15.70;99.90
42099;DHT22;27758;55.900;8.516;2023-08-17T06:09:12;15.70;99.90
42099;DHT22;27758;55.900;8.516;2023-08-17T06:11:38;15.70;99.90
42099;DHT22;27758;55.900;8.516;2023-08-17T06:14:04;15.70;99.90
42099;DHT22;27758;55.900;8.516;2023-08-17T06:16:29;15.70;99.90
42099;DHT22;27758;55.900;8.516;2023-08-17T06:18:55;15.60;99.90
42099;DHT22;27758;55.900;8.516;2023-08-17T06:21:21;15.70;99.90
42099;DHT22;27758;55.900;8.516;2023-08-17T06:23:47;15.60;99.90
42099;DHT22;27758;55.900;8.516;2023-08-17T06:26:12;15.70;99.90
42099;DHT22;27758;55.900;8.516;2023-08-17T06:28:38;15.70;99.90
42099;DHT22;27758;55.900;8.516;2023-08-17T06:31:04;15.80;99.90
42099;DHT22;27758;55.900;8.516;2023-08-17T06:33:30;15.80;99.90
42099;DHT22;27758;55.900;8.516;2023-08-17T06:35:55;15.80;99.90
42099;DHT22;27758;55.900;8.516;2023-08-17T06:38:21;15.90;99.90
42099;DHT22;27758;55.900;8.516;2023-08-17T06:40:47;15.90;99.90
42099;DHT22;27758;55.900;8.516;2023-08-17T06:43:13;16.00;99.90
42099;DHT22;27758;55.900;8.516;2023-08-17T06:45:39;16.10;99.90
42099;DHT22;27758;55.900;8.516;2023-08-17T06:48:05;16.10;99.90
42099;DHT22;27758;55.900;8.516;2023-08-17T06:50:31;16.10;99.90
42099;DHT22;27758;55.900;8.516;2023-08-17T06:52:56;16.10;99.90
42099;DHT22;27758;55.900;8.516;2023-08-17T06:55:22;16.10;99.90
42099;DHT22;27758;55.900;8.516;2023-08-17T06:57:48;16.20;99.90
42099;DHT22;27758;55.900;8.516;2023-08-17T07:00:17;16.20;99.90
42099;DHT22;27758;55.900;8.516;2023-08-17T07:02:46;16.20;99.90
42099;DHT22;27758;55.900;8.516;2023-08-17T07:05:17;16.20;99.90
42099;DHT22;27758;55.900;8.516;2023-08-17T07:07:43;16.40;99.90
42099;DHT22;27758;55.900;8.516;2023-08-17T07:10:10;16.40;99.90
42099;DHT22;27758;55.900;8.516;2023-08-17T07:12:39;16.40;99.90
42099;DHT22;27758;55.900;8.516;2023-08-17T07:15:06;16.40;99.90
42099;DHT22;27758;55.900;8.516;2023-08-17T07:17:32;16.50;99.90
42099;DHT22;27758;55.900;8.516;2023-08-17T07:20:00;16.50;99.90
42099;DHT22;27758;55.900;8.516;2023-08-17T07:22:25;16.60;99.90
42099;DHT22;27758;55.900;8.516;2023-08-17T07:24:53;16.70;99.90
42099;DHT22;27758;55.900;8.516;2023-08-17T07:27:19;16.80;99.90
42099;DHT22;27758;55.900;8.516;2023-08-17T07:29:45;16.80;99.90
42099;DHT22;27758;55.900;8.516;2023-08-17T07:32:10;16.80;99.90
42099;DHT22;27758;55.900;8.516;2023-08-17T07:34:36;16.80;99.90
42099;DHT22;27758;55.900;8.516;2023-08-17T07:37:04;16.90;99.90
42099;DHT22;27758;55.900;8.516;2023-08-17T07:39:30;16.80;99.90
42099;DHT22;27758;55.900;8.516;2023-08-17T07:41:56;16.80;99.90
42099;DHT22;27758;55.900;8.516;2023-08-17T07:44:21;16.80;99.90
42099;DHT22;27758;55.900;8.516;2023-08-17T07:46:47;16.90;99.90
42099;DHT22;27758;55.900;8.516;2023-08-17T07:49:13;17.00;99.90
42099;DHT22;27758;55.900;8.516;2023-08-17T07:51:38;17.00;99.90
42099;DHT22;27758;55.900;8.516;2023-08-17T07:54:04;17.10;99.90
42099;DHT22;27758;55.900;8.516;2023-08-17T07:56:30;17.10;99.90
42099;DHT22;27758;55.900;8.516;2023-08-17T07:58:56;17.20;99.90
42099;DHT22;27758;55.900;8.516;2023-08-17T08:01:22;17.20;99.90
42099;DHT22;27758;55.900;8.516;2023-08-17T08:03:48;17.30;99.90
42099;DHT22;27758;55.900;8.516;2023-08-17T08:06:13;17.30;99.90
42099;DHT22;27758;55.900;8.516;2023-08-17T08:08:40;17.30;99.90
42099;DHT22;27758;55.900;8.516;2023-08-17T08:11:06;17.20;99.90
42099;DHT22;27758;55.900;8.516;2023-08-17T08:13:32;17.30;99.90
42099;DHT22;27758;55.900;8.516;2023-08-17T08:15:59;17.30;99.90
42099;DHT22;27758;55.900;8.516;2023-08-17T08:18:26;17.40;99.90
42099;DHT22;27758;55.900;8.516;2023-08-17T08:20:52;17.40;99.90
42099;DHT22;27758;55.900;8.516;2023-08-17T08:23:18;17.40;99.90
42099;DHT22;27758;55.900;8.516;2023-08-17T08:25:43;17.50;99.90
42099;DHT22;27758;55.900;8.516;2023-08-17T08:28:09;17.50;99.90
42099;DHT22;27758;55.900;8.516;2023-08-17T08:30:35;17.50;99.90
42099;DHT22;27758;55.900;8.516;2023-08-17T08:33:01;17.60;99.90
42099;DHT22;27758;55.900;8.516;2023-08-17T08:35:28;17.50;99.90
42099;DHT22;27758;55.900;8.516;2023-08-17T08:37:54;17.50;99.90
42099;DHT22;27758;55.900;8.516;2023-08-17T08:40:28;17.50;99.90
42099;DHT22;27758;55.900;8.516;2023-08-17T08:42:55;17.60;99.90
42099;DHT22;27758;55.900;8.516;2023-08-17T08:45:22;17.60;99.90
42099;DHT22;27758;55.900;8.516;2023-08-17T08:47:48;17.50;99.90
42099;DHT22;27758;55.900;8.516;2023-08-17T08:50:18;17.30;99.90
42099;DHT22;27758;55.900;8.516;2023-08-17T08:52:50;17.20;99.90
42099;DHT22;27758;55.900;8.516;2023-08-17T08:55:18;17.10;99.90
42099;DHT22;27758;55.900;8.516;2023-08-17T08:57:44;17.10;99.90
42099;DHT22;27758;55.900;8.516;2023-08-17T09:00:12;17.10;99.90
42099;DHT22;27758;55.900;8.516;2023-08-17T09:02:38;17.30;99.90
42099;DHT22;27758;55.900;8.516;2023-08-17T09:05:06;17.40;99.90
42099;DHT22;27758;55.900;8.516;2023-08-17T09:07:33;17.50;99.90
42099;DHT22;27758;55.900;8.516;2023-08-17T09:09:59;17.50;99.90
42099;DHT22;27758;55.900;8.516;2023-08-17T09:12:25;17.60;99.90
42099;DHT22;27758;55.900;8.516;2023-08-17T09:14:51;17.70;99.90
42099;DHT22;27758;55.900;8.516;2023-08-17T09:17:27;17.80;99.90
42099;DHT22;27758;55.900;8.516;2023-08-17T09:19:54;17.80;99.90
42099;DHT22;27758;55.900;8.516;2023-08-17T09:22:36;17.60;99.90
42099;DHT22;27758;55.900;8.516;2023-08-17T09:25:02;17.60;99.90
42099;DHT22;27758;55.900;8.516;2023-08-17T09:27:28;17.50;99.90
42099;DHT22;27758;55.900;8.516;2023-08-17T09:30:04;17.40;99.90
42099;DHT22;27758;55.900;8.516;2023-08-17T09:32:31;17.50;99.90
42099;DHT22;27758;55.900;8.516;2023-08-17T09:35:00;17.60;99.90
42099;DHT22;27758;55.900;8.516;2023-08-17T09:37:28;17.60;99.90
42099;DHT22;27758;55.900;8.516;2023-08-17T09:39:55;17.60;99.90
42099;DHT22;27758;55.900;8.516;2023-08-17T09:42:21;17.50;99.90
42099;DHT22;27758;55.900;8.516;2023-08-17T09:44:49;17.60;99.90
42099;DHT22;27758;55.900;8.516;2023-08-17T09:47:16;17.60;99.90
42099;DHT22;27758;55.900;8.516;2023-08-17T09:49:53;17.60;99.90
42099;DHT22;27758;55.900;8.516;2023-08-17T09:52:22;17.50;99.90
42099;DHT22;27758;55.900;8.516;2023-08-17T09:54:52;17.60;99.90
42099;DHT22;27758;55.900;8.516;2023-08-17T09:57:20;17.60;99.90
42099;DHT22;27758;55.900;8.516;2023-08-17T09:59:45;17.70;99.90
42099;DHT22;27758;55.900;8.516;2023-08-17T10:02:19;17.70;99.90
42099;DHT22;27758;55.900;8.516;2023-08-17T10:04:49;17.70;99.90
42099;DHT22;27758;55.900;8.516;2023-08-17T10:07:19;17.80;99.90
42099;DHT22;27758;55.900;8.516;2023-08-17T10:09:49;18.00;99.90
42099;DHT22;27758;55.900;8.516;2023-08-17T10:12:19;18.20;99.90
42099;DHT22;27758;55.900;8.516;2023-08-17T10:14:59;18.50;99.90
42099;DHT22;27758;55.900;8.516;2023-08-17T10:17:33;18.70;99.90
42099;DHT22;27758;55.900;8.516;2023-08-17T10:20:01;18.70;99.90
42099;DHT22;27758;55.900;8.516;2023-08-17T10:22:33;19.10;99.90
42099;DHT22;27758;55.900;8.516;2023-08-17T10:25:02;19.30;99.90
42099;DHT22;27758;55.900;8.516;2023-08-17T10:27:29;19.50;99.90
42099;DHT22;27758;55.900;8.516;2023-08-17T10:29:55;19.60;99.90
42099;DHT22;27758;55.900;8.516;2023-08-17T10:32:22;19.60;99.90
42099;DHT22;27758;55.900;8.516;2023-08-17T10:34:50;19.40;99.90
42099;DHT22;27758;55.900;8.516;2023-08-17T10:37:18;19.50;99.90
42099;DHT22;27758;55.900;8.516;2023-08-17T10:39:46;19.70;99.90
42099;DHT22;27758;55.900;8.516;2023-08-17T10:42:13;19.70;99.90
42099;DHT22;27758;55.900;8.516;2023-08-17T10:44:45;19.80;99.90
42099;DHT22;27758;55.900;8.516;2023-08-17T10:47:31;19.80;99.90
42099;DHT22;27758;55.900;8.516;2023-08-17T10:50:02;19.80;99.90
42099;DHT22;27758;55.900;8.516;2023-08-17T10:52:33;20.00;99.90
42099;DHT22;27758;55.900;8.516;2023-08-17T10:55:04;19.80;99.90
42099;DHT22;27758;55.900;8.516;2023-08-17T10:57:43;19.90;99.90
42099;DHT22;27758;55.900;8.516;2023-08-17T11:00:20;20.10;99.90
42099;DHT22;27758;55.900;8.516;2023-08-17T11:03:05;20.20;99.90
42099;DHT22;27758;55.900;8.516;2023-08-17T11:05:57;20.60;99.90
42099;DHT22;27758;55.900;8.516;2023-08-17T11:08:32;20.40;99.90
42099;DHT22;27758;55.900;8.516;2023-08-17T11:10:59;19.80;99.90
42099;DHT22;27758;55.900;8.516;2023-08-17T11:13:34;19.60;99.90
42099;DHT22;27758;55.900;8.516;2023-08-17T11:16:01;19.70;99.90
42099;DHT22;27758;55.900;8.516;2023-08-17T11:18:27;20.30;99.90
42099;DHT22;27758;55.900;8.516;2023-08-17T11:20:53;20.80;99.90
42099;DHT22;27758;55.900;8.516;2023-08-17T11:23:20;20.70;99.90
42099;DHT22;27758;55.900;8.516;2023-08-17T11:25:46;20.70;99.90
42099;DHT22;27758;55.900;8.516;2023-08-17T11:28:12;20.50;99.90
42099;DHT22;27758;55.900;8.516;2023-08-17T11:30:40;20.60;99.90
42099;DHT22;27758;55.900;8.516;2023-08-17T11:33:07;20.70;99.90
42099;DHT22;27758;55.900;8.516;2023-08-17T11:35:34;20.70;99.90
42099;DHT22;27758;55.900;8.516;2023-08-17T11:38:00;21.20;99.90
42099;DHT22;27758;55.900;8.516;2023-08-17T11:40:26;21.50;99.90
42099;DHT22;27758;55.900;8.516;2023-08-17T11:42:52;22.20;99.90
42099;DHT22;27758;55.900;8.516;2023-08-17T11:45:18;22.70;99.90
42099;DHT22;27758;55.900;8.516;2023-08-17T11:47:46;22.40;99.90
42099;DHT22;27758;55.900;8.516;2023-08-17T11:50:13;22.60;99.90
42099;DHT22;27758;55.900;8.516;2023-08-17T11:52:39;22.70;99.90
42099;DHT22;27758;55.900;8.516;2023-08-17T11:55:06;23.10;99.90
42099;DHT22;27758;55.900;8.516;2023-08-17T11:57:33;23.50;99.90
42099;DHT22;27758;55.900;8.516;2023-08-17T11:59:59;23.50;99.90
42099;DHT22;27758;55.900;8.516;2023-08-17T12:02:29;23.80;99.90
42099;DHT22;27758;55.900;8.516;2023-08-17T12:04:56;23.80;99.90
42099;DHT22;27758;55.900;8.516;2023-08-17T12:07:23;23.60;99.90
42099;DHT22;27758;55.900;8.516;2023-08-17T12:09:50;23.40;99.90
42099;DHT22;27758;55.900;8.516;2023-08-17T12:12:21;23.10;99.90
42099;DHT22;27758;55.900;8.516;2023-08-17T12:14:48;22.80;99.90
42099;DHT22;27758;55.900;8.516;2023-08-17T12:17:17;22.50;99.90
42099;DHT22;27758;55.900;8.516;2023-08-17T12:19:44;22.30;99.90
42099;DHT22;27758;55.900;8.516;2023-08-17T12:22:12;22.50;99.90
42099;DHT22;27758;55.900;8.516;2023-08-17T12:24:38;22.50;99.90
42099;DHT22;27758;55.900;8.516;2023-08-17T12:27:05;22.30;99.90
42099;DHT22;27758;55.900;8.516;2023-08-17T12:29:31;22.50;99.90
42099;DHT22;27758;55.900;8.516;2023-08-17T12:31:58;23.00;99.90
42099;DHT22;27758;55.900;8.516;2023-08-17T12:34:24;23.70;99.90
42099;DHT22;27758;55.900;8.516;2023-08-17T12:36:50;24.50;99.90
42099;DHT22;27758;55.900;8.516;2023-08-17T12:39:16;24.60;99.90
42099;DHT22;27758;55.900;8.516;2023-08-17T12:41:42;24.20;99.90
42099;DHT22;27758;55.900;8.516;2023-08-17T12:44:11;23.60;99.90
42099;DHT22;27758;55.900;8.516;2023-08-17T12:46:42;23.90;99.90
42099;DHT22;27758;55.900;8.516;2023-08-17T12:49:11;24.00;99.90
42099;DHT22;27758;55.900;8.516;2023-08-17T12:51:36;24.10;99.90
42099;DHT22;27758;55.900;8.516;2023-08-17T12:54:03;23.60;99.90
42099;DHT22;27758;55.900;8.516;2023-08-17T12:56:29;23.40;99.90
42099;DHT22;27758;55.900;8.516;2023-08-17T12:58:55;23.40;99.90
42099;DHT22;27758;55.900;8.516;2023-08-17T13:01:20;23.20;99.90
42099;DHT22;27758;55.900;8.516;2023-08-17T13:03:46;23.00;99.90
42099;DHT22;27758;55.900;8.516;2023-08-17T13:06:11;23.10;99.90
42099;DHT22;27758;55.900;8.516;2023-08-17T13:08:37;23.00;99.90
42099;DHT22;27758;55.900;8.516;2023-08-17T13:11:03;23.20;99.90
42099;DHT22;27758;55.900;8.516;2023-08-17T13:13:28;23.30;99.90
42099;DHT22;27758;55.900;8.516;2023-08-17T13:15:54;23.50;99.90
42099;DHT22;27758;55.900;8.516;2023-08-17T13:18:20;23.60;99.90
42099;DHT22;27758;55.900;8.516;2023-08-17T13:20:45;23.50;99.90
42099;DHT22;27758;55.900;8.516;2023-08-17T13:23:11;23.50;99.90
42099;DHT22;27758;55.900;8.516;2023-08-17T13:25:37;23.70;99.90
42099;DHT22;27758;55.900;8.516;2023-08-17T13:28:03;23.70;99.90
42099;DHT22;27758;55.900;8.516;2023-08-17T13:30:29;24.10;99.90
42099;DHT22;27758;55.900;8.516;2023-08-17T13:32:55;24.30;99.90
42099;DHT22;27758;55.900;8.516;2023-08-17T13:35:21;24.10;99.90
42099;DHT22;27758;55.900;8.516;2023-08-17T13:37:54;23.60;99.90
42099;DHT22;27758;55.900;8.516;2023-08-17T13:40:20;23.20;99.90
42099;DHT22;27758;55.900;8.516;2023-08-17T13:42:46;23.00;99.90
42099;DHT22;27758;55.900;8.516;2023-08-17T13:45:12;23.00;99.90
42099;DHT22;27758;55.900;8.516;2023-08-17T13:47:37;23.00;99.90
42099;DHT22;27758;55.900;8.516;2023-08-17T13:50:03;23.20;99.90
42099;DHT22;27758;55.900;8.516;2023-08-17T13:52:29;23.40;99.90
42099;DHT22;27758;55.900;8.516;2023-08-17T13:54:55;23.50;99.90
42099;DHT22;27758;55.900;8.516;2023-08-17T13:57:21;23.70;99.90
42099;DHT22;27758;55.900;8.516;2023-08-17T13:59:46;23.80;99.90
42099;DHT22;27758;55.900;8.516;2023-08-17T14:02:12;23.80;99.90
42099;DHT22;27758;55.900;8.516;2023-08-17T14:04:38;24.00;99.90
42099;DHT22;27758;55.900;8.516;2023-08-17T14:07:04;23.90;99.90
42099;DHT22;27758;55.900;8.516;2023-08-17T14:09:30;24.00;99.90
42099;DHT22;27758;55.900;8.516;2023-08-17T14:11:56;23.90;99.90
42099;DHT22;27758;55.900;8.516;2023-08-17T14:14:21;23.80;99.90
42099;DHT22;27758;55.900;8.516;2023-08-17T14:16:47;23.50;99.90
42099;DHT22;27758;55.900;8.516;2023-08-17T14:19:13;23.30;99.90
42099;DHT22;27758;55.900;8.516;2023-08-17T14:21:38;23.10;99.90
42099;DHT22;27758;55.900;8.516;2023-08-17T14:24:04;22.90;99.90
42099;DHT22;27758;55.900;8.516;2023-08-17T14:26:32;22.80;99.90
42099;DHT22;27758;55.900;8.516;2023-08-17T14:28:57;22.90;99.90
42099;DHT22;27758;55.900;8.516;2023-08-17T14:31:23;22.80;99.90
42099;DHT22;27758;55.900;8.516;2023-08-17T14:33:49;22.90;99.90
42099;DHT22;27758;55.900;8.516;2023-08-17T14:36:15;22.80;99.90
42099;DHT22;27758;55.900;8.516;2023-08-17T14:38:41;22.70;99.90
42099;DHT22;27758;55.900;8.516;2023-08-17T14:41:07;22.60;99.90
42099;DHT22;27758;55.900;8.516;2023-08-17T14:43:34;22.50;99.90
42099;DHT22;27758;55.900;8.516;2023-08-17T14:46:00;22.10;99.90
42099;DHT22;27758;55.900;8.516;2023-08-17T14:48:26;21.70;99.90
42099;DHT22;27758;55.900;8.516;2023-08-17T14:50:52;21.70;99.90
42099;DHT22;27758;55.900;8.516;2023-08-17T14:53:17;21.80;99.90
42099;DHT22;27758;55.900;8.516;2023-08-17T14:55:43;21.80;99.90
42099;DHT22;27758;55.900;8.516;2023-08-17T14:58:09;21.80;99.90
42099;DHT22;27758;55.900;8.516;2023-08-17T15:00:35;21.80;99.90
42099;DHT22;27758;55.900;8.516;2023-08-17T15:03:00;21.90;99.90
42099;DHT22;27758;55.900;8.516;2023-08-17T15:05:26;21.90;99.90
42099;DHT22;27758;55.900;8.516;2023-08-17T15:07:52;21.90;99.90
42099;DHT22;27758;55.900;8.516;2023-08-17T15:10:18;21.70;99.90
42099;DHT22;27758;55.900;8.516;2023-08-17T15:12:44;21.60;99.90
42099;DHT22;27758;55.900;8.516;2023-08-17T15:15:10;21.30;99.90
42099;DHT22;27758;55.900;8.516;2023-08-17T15:17:36;21.20;99.90
42099;DHT22;27758;55.900;8.516;2023-08-17T15:20:02;21.20;99.90
42099;DHT22;27758;55.900;8.516;2023-08-17T15:22:28;21.20;99.90
42099;DHT22;27758;55.900;8.516;2023-08-17T15:24:53;21.30;99.90
42099;DHT22;27758;55.900;8.516;2023-08-17T15:27:19;21.30;99.90
42099;DHT22;27758;55.900;8.516;2023-08-17T15:29:45;21.20;99.90